createdAt,value
2023-02-27T00:00:17.798Z,1.35
2023-02-27T00:03:04.843Z,1.28
2023-02-27T00:05:32.463Z,1.23
2023-02-27T00:07:59.467Z,1.19
2023-02-27T00:10:26.852Z,1.20
2023-02-27T00:12:53.879Z,1.20
2023-02-27T00:15:21.713Z,1.23
2023-02-27T00:17:48.830Z,1.23
2023-02-27T00:20:19.523Z,1.22
2023-02-27T00:22:47.156Z,1.21
2023-02-27T00:25:15.616Z,1.12
2023-02-27T00:27:42.882Z,1.13
2023-02-27T00:30:14.047Z,1.06
2023-02-27T00:32:42.640Z,1.04
2023-02-27T00:35:12.242Z,1.04
2023-02-27T00:37:40.147Z,0.94
2023-02-27T00:40:09.012Z,0.87
2023-02-27T00:42:36.497Z,0.83
2023-02-27T00:45:05.892Z,0.75
2023-02-27T00:47:34.635Z,0.75
2023-02-27T00:50:02.140Z,0.73
2023-02-27T00:52:29.540Z,0.70
2023-02-27T00:54:56.857Z,0.69
2023-02-27T00:57:23.784Z,0.70
2023-02-27T00:59:51.226Z,0.69
2023-02-27T01:02:18.319Z,0.67
2023-02-27T01:04:45.636Z,0.69
2023-02-27T01:07:13.544Z,0.66
2023-02-27T01:09:40.869Z,0.66
2023-02-27T01:12:08.355Z,0.55
2023-02-27T01:14:36.510Z,0.57
2023-02-27T01:17:04.138Z,0.60
2023-02-27T01:19:33.053Z,0.61
2023-02-27T01:22:00.231Z,0.60
2023-02-27T01:24:27.530Z,0.60
2023-02-27T01:26:54.674Z,0.64
2023-02-27T01:29:22.217Z,0.60
2023-02-27T01:31:49.774Z,0.55
2023-02-27T01:34:18.571Z,0.56
2023-02-27T01:36:45.494Z,0.53
2023-02-27T01:39:12.826Z,0.52
2023-02-27T01:41:39.869Z,0.57
2023-02-27T01:44:14.021Z,0.60
2023-02-27T01:46:41.368Z,0.59
2023-02-27T01:49:15.574Z,0.66
2023-02-27T01:51:51.844Z,0.69
2023-02-27T01:54:25.369Z,0.63
2023-02-27T01:56:52.776Z,0.62
2023-02-27T01:59:22.520Z,0.59
2023-02-27T02:01:51.542Z,0.56
2023-02-27T02:04:34.440Z,0.54
2023-02-27T02:07:13.177Z,0.46
2023-02-27T02:09:46.735Z,0.45
2023-02-27T02:12:17.122Z,0.42
2023-02-27T02:14:45.234Z,0.36
2023-02-27T02:17:40.070Z,0.31
2023-02-27T02:20:22.349Z,0.29
2023-02-27T02:23:30.172Z,0.22
2023-02-27T02:26:06.328Z,0.23
2023-02-27T02:29:11.589Z,0.23
2023-02-27T02:31:44.876Z,0.16
2023-02-27T02:34:33.397Z,0.08
2023-02-27T02:37:22.278Z,0.07
2023-02-27T02:40:24.505Z,0.06
2023-02-27T02:43:03.886Z,0.07
2023-02-27T02:45:57.363Z,0.07
2023-02-27T02:48:48.979Z,0.10
2023-02-27T02:51:39.864Z,0.14
2023-02-27T02:54:20.354Z,0.18
2023-02-27T02:57:05.140Z,0.19
2023-02-27T03:00:01.850Z,0.23
2023-02-27T03:02:37.686Z,0.27
2023-02-27T03:05:33.013Z,0.30
2023-02-27T03:08:08.929Z,0.32
2023-02-27T03:11:01.416Z,0.33
2023-02-27T03:13:42.078Z,0.33
2023-02-27T03:16:43.170Z,0.33
2023-02-27T03:19:23.772Z,0.33
2023-02-27T03:21:59.817Z,0.33
2023-02-27T03:24:39.894Z,0.36
2023-02-27T03:27:10.106Z,0.42
2023-02-27T03:29:53.066Z,0.41
2023-02-27T03:32:31.732Z,0.45
2023-02-27T03:34:59.494Z,0.45
2023-02-27T03:38:06.131Z,0.47
2023-02-27T03:40:50.975Z,0.49
2023-02-27T03:43:46.890Z,0.47
2023-02-27T03:46:22.573Z,0.43
2023-02-27T03:48:50.191Z,0.42
2023-02-27T03:51:26.040Z,0.45
2023-02-27T03:54:16.987Z,0.45
2023-02-27T03:57:00.714Z,0.43
2023-02-27T03:59:31.911Z,0.44
2023-02-27T04:02:02.202Z,0.46
2023-02-27T04:04:32.879Z,0.47
2023-02-27T04:07:24.967Z,0.47
2023-02-27T04:10:33.955Z,0.42
2023-02-27T04:13:33.193Z,0.35
2023-02-27T04:16:22.498Z,0.34
2023-02-27T04:18:56.890Z,0.32
2023-02-27T04:21:42.048Z,0.31
2023-02-27T04:24:27.398Z,0.33
2023-02-27T04:27:08.809Z,0.30
2023-02-27T04:30:17.241Z,0.27
2023-02-27T04:33:10.445Z,0.29
2023-02-27T04:35:59.487Z,0.28
2023-02-27T04:38:52.809Z,0.27
2023-02-27T04:41:29.542Z,0.28
2023-02-27T04:43:59.495Z,0.28
2023-02-27T04:46:31.039Z,0.30
2023-02-27T04:49:09.219Z,0.27
2023-02-27T04:51:47.589Z,0.17
2023-02-27T04:54:25.980Z,0.18
2023-02-27T04:57:02.248Z,0.20
2023-02-27T04:59:47.001Z,0.18
2023-02-27T05:02:26.214Z,0.15
2023-02-27T05:04:59.032Z,0.11
2023-02-27T05:07:39.766Z,0.04
2023-02-27T05:10:17.267Z,-0.08
2023-02-27T05:12:54.133Z,-0.11
2023-02-27T05:15:38.182Z,-0.17
2023-02-27T05:18:12.368Z,-0.20
2023-02-27T05:21:02.039Z,-0.28
2023-02-27T05:23:55.100Z,-0.33
2023-02-27T05:26:55.186Z,-0.37
2023-02-27T05:29:31.173Z,-0.41
2023-02-27T05:32:04.573Z,-0.48
2023-02-27T05:34:55.747Z,-0.53
2023-02-27T05:37:45.108Z,-0.61
2023-02-27T05:40:23.274Z,-0.64
2023-02-27T05:43:04.918Z,-0.65
2023-02-27T05:45:37.114Z,-0.65
2023-02-27T05:48:21.309Z,-0.69
2023-02-27T05:50:52.501Z,-0.74
2023-02-27T05:53:25.951Z,-0.75
2023-02-27T05:55:58.684Z,-0.76
2023-02-27T05:59:00.879Z,-0.77
2023-02-27T06:01:27.815Z,-0.71
2023-02-27T06:03:55.621Z,-0.67
2023-02-27T06:06:23.309Z,-0.63
2023-02-27T06:08:50.988Z,-0.64
2023-02-27T06:11:18.084Z,-0.63
2023-02-27T06:13:45.515Z,-0.62
2023-02-27T06:16:15.761Z,-0.62
2023-02-27T06:18:43.024Z,-0.66
2023-02-27T06:21:10.731Z,-0.62
2023-02-27T06:23:37.887Z,-0.54
2023-02-27T06:26:05.144Z,-0.52
2023-02-27T06:28:33.893Z,-0.52
2023-02-27T06:31:00.930Z,-0.45
2023-02-27T06:33:32.213Z,-0.41
2023-02-27T06:35:59.308Z,-0.34
2023-02-27T06:38:27.072Z,-0.34
2023-02-27T06:40:54.249Z,-0.29
2023-02-27T06:43:23.220Z,-0.25
2023-02-27T06:45:53.973Z,-0.24
2023-02-27T06:48:21.601Z,-0.21
2023-02-27T06:50:54.469Z,-0.21
2023-02-27T06:53:23.032Z,-0.14
2023-02-27T06:55:50.154Z,-0.12
2023-02-27T06:58:18.206Z,-0.21
2023-02-27T07:00:45.280Z,-0.17
2023-02-27T07:03:13.319Z,-0.12
2023-02-27T07:06:05.582Z,-0.08
2023-02-27T07:08:36.042Z,-0.01
2023-02-27T07:11:03.206Z,-0.01
2023-02-27T07:13:30.642Z,0.04
2023-02-27T07:15:57.723Z,0.12
2023-02-27T07:18:25.698Z,0.24
2023-02-27T07:20:55.262Z,0.29
2023-02-27T07:23:23.645Z,0.34
2023-02-27T07:25:50.655Z,0.31
2023-02-27T07:28:19.077Z,0.30
2023-02-27T07:30:47.316Z,0.38
2023-02-27T07:33:14.682Z,0.42
2023-02-27T07:35:47.190Z,0.48
2023-02-27T07:40:59.311Z,0.57
2023-02-27T07:43:36.301Z,0.59
2023-02-27T07:46:04.180Z,0.64
2023-02-27T07:48:33.485Z,0.71
2023-02-27T07:51:07.668Z,0.77
2023-02-27T07:53:37.198Z,0.85
2023-02-27T07:56:09.363Z,0.89
2023-02-27T07:58:36.823Z,0.91
2023-02-27T08:01:03.750Z,0.95
2023-02-27T08:03:30.918Z,1.04
2023-02-27T08:05:57.856Z,1.08
2023-02-27T08:08:25.157Z,1.05
2023-02-27T08:10:52.276Z,1.08
2023-02-27T08:13:25.183Z,1.08
2023-02-27T08:16:02.943Z,1.07
2023-02-27T08:18:30.288Z,1.09
2023-02-27T08:20:57.995Z,1.24
2023-02-27T08:23:25.431Z,1.33
2023-02-27T08:25:52.703Z,1.36
2023-02-27T08:28:20.063Z,1.37
2023-02-27T08:30:48.352Z,1.48
2023-02-27T08:33:15.535Z,1.48
2023-02-27T08:35:42.854Z,1.55
2023-02-27T08:38:10.600Z,1.64
2023-02-27T08:40:37.643Z,1.73
2023-02-27T08:43:05.040Z,1.84
2023-02-27T08:45:32.416Z,1.97
2023-02-27T08:47:59.711Z,2.15
2023-02-27T08:50:26.794Z,2.24
2023-02-27T08:52:54.053Z,2.26
2023-02-27T08:55:21.646Z,2.27
2023-02-27T08:57:49.075Z,2.21
2023-02-27T09:00:16.875Z,2.25
2023-02-27T09:02:44.293Z,2.20
2023-02-27T09:05:11.499Z,2.23
2023-02-27T09:07:38.762Z,2.34
2023-02-27T09:10:07.286Z,2.39
2023-02-27T09:12:34.664Z,2.41
2023-02-27T09:15:01.698Z,2.46
2023-02-27T09:17:29.113Z,2.59
2023-02-27T09:19:57.491Z,2.67
2023-02-27T09:22:25.225Z,2.79
2023-02-27T09:24:52.277Z,2.82
2023-02-27T09:27:19.542Z,2.90
2023-02-27T09:29:46.477Z,2.99
2023-02-27T09:32:14.280Z,3.06
2023-02-27T09:34:41.309Z,3.05
2023-02-27T09:37:08.525Z,3.00
2023-02-27T09:39:36.304Z,3.06
2023-02-27T09:42:19.635Z,3.15
2023-02-27T09:44:55.961Z,3.19
2023-02-27T09:47:31.016Z,3.17
2023-02-27T09:50:20.054Z,3.19
2023-02-27T09:52:47.460Z,3.15
2023-02-27T09:55:22.707Z,3.17
2023-02-27T09:58:07.786Z,3.14
2023-02-27T10:01:11.182Z,3.17
2023-02-27T10:04:11.372Z,3.23
2023-02-27T10:06:54.798Z,3.19
2023-02-27T10:10:02.346Z,3.21
2023-02-27T10:13:18.399Z,3.31
2023-02-27T10:15:53.032Z,3.34
2023-02-27T10:18:30.662Z,3.47
2023-02-27T10:21:14.313Z,3.42
2023-02-27T10:23:53.484Z,3.33
2023-02-27T10:26:28.378Z,3.28
2023-02-27T10:28:56.101Z,3.28
2023-02-27T10:31:33.613Z,3.21
2023-02-27T10:34:02.277Z,3.31
2023-02-27T10:36:34.336Z,3.33
2023-02-27T10:39:12.835Z,3.30
2023-02-27T10:41:43.942Z,3.24
2023-02-27T10:44:16.450Z,3.21
2023-02-27T10:46:43.929Z,3.27
2023-02-27T10:49:19.312Z,3.22
2023-02-27T10:52:05.509Z,3.28
2023-02-27T10:54:32.457Z,3.44
2023-02-27T10:57:19.111Z,3.54
2023-02-27T10:59:57.905Z,3.68
2023-02-27T11:02:40.544Z,3.85
2023-02-27T11:05:24.275Z,3.80
2023-02-27T11:07:51.967Z,3.79
2023-02-27T11:10:23.292Z,3.95
2023-02-27T11:13:18.739Z,4.00
2023-02-27T11:16:23.750Z,4.10
2023-02-27T11:18:54.382Z,4.12
2023-02-27T11:21:27.451Z,4.18
2023-02-27T11:24:07.726Z,4.10
2023-02-27T11:26:53.207Z,4.03
2023-02-27T11:29:21.137Z,4.03
2023-02-27T11:32:13.916Z,4.05
2023-02-27T11:34:50.038Z,4.06
2023-02-27T11:37:37.952Z,4.19
2023-02-27T11:40:23.620Z,4.02
2023-02-27T11:42:53.451Z,3.98
2023-02-27T11:46:13.551Z,4.11
2023-02-27T11:48:21.963Z,4.23
2023-02-27T11:51:11.503Z,4.15
2023-02-27T11:54:02.629Z,4.19
2023-02-27T11:56:51.464Z,4.17
2023-02-27T11:59:34.287Z,4.23
2023-02-27T12:02:31.360Z,4.23
2023-02-27T12:05:26.407Z,4.40
2023-02-27T12:08:53.977Z,4.43
2023-02-27T12:11:44.211Z,4.28
2023-02-27T12:14:38.717Z,4.22
2023-02-27T12:17:21.075Z,4.24
2023-02-27T12:20:23.912Z,4.28
2023-02-27T12:22:54.374Z,4.31
2023-02-27T12:25:48.602Z,4.26
2023-02-27T12:28:31.516Z,4.28
2023-02-27T12:31:14.264Z,4.28
2023-02-27T12:34:04.176Z,4.29
2023-02-27T12:36:31.870Z,4.26
2023-02-27T12:38:58.947Z,4.21
2023-02-27T12:41:56.452Z,4.18
2023-02-27T12:44:29.585Z,4.21
2023-02-27T12:47:14.462Z,4.15
2023-02-27T12:49:46.885Z,4.21
2023-02-27T12:52:49.533Z,4.29
2023-02-27T12:55:27.918Z,4.23
2023-02-27T12:58:42.638Z,4.19
2023-02-27T13:01:47.559Z,4.28
2023-02-27T13:05:13.427Z,4.28
2023-02-27T13:08:20.415Z,4.47
2023-02-27T13:11:00.434Z,4.47
2023-02-27T13:13:37.950Z,4.42
2023-02-27T13:16:31.356Z,4.36
2023-02-27T13:19:10.094Z,4.45
2023-02-27T13:21:53.246Z,4.53
2023-02-27T13:24:26.367Z,4.37
2023-02-27T13:27:17.057Z,4.36
2023-02-27T13:29:54.996Z,4.21
2023-02-27T13:32:43.505Z,4.25
2023-02-27T13:35:21.465Z,4.24
2023-02-27T13:38:02.544Z,4.24
2023-02-27T13:40:40.265Z,4.28
2023-02-27T13:43:46.460Z,4.35
2023-02-27T13:46:21.308Z,4.37
2023-02-27T13:49:26.971Z,4.32
2023-02-27T13:51:59.308Z,4.37
2023-02-27T13:54:40.254Z,4.44
2023-02-27T13:57:18.694Z,4.50
2023-02-27T14:00:02.238Z,4.47
2023-02-27T14:02:56.778Z,4.48
2023-02-27T14:05:43.119Z,4.42
2023-02-27T14:08:16.250Z,4.39
2023-02-27T14:11:26.474Z,4.41
2023-02-27T14:13:59.966Z,4.51
2023-02-27T14:16:42.151Z,4.40
2023-02-27T14:19:24.229Z,4.36
2023-02-27T14:21:51.530Z,4.36
2023-02-27T14:24:27.679Z,4.34
2023-02-27T14:26:56.673Z,4.34
2023-02-27T14:29:31.498Z,4.28
2023-02-27T14:32:04.143Z,4.24
2023-02-27T14:34:31.740Z,4.14
2023-02-27T14:37:06.330Z,4.10
2023-02-27T14:39:38.304Z,4.06
2023-02-27T14:42:21.302Z,3.97
2023-02-27T14:44:50.399Z,4.02
2023-02-27T14:47:32.314Z,4.04
2023-02-27T14:50:23.514Z,4.12
2023-02-27T14:52:50.809Z,4.14
2023-02-27T14:55:31.365Z,4.21
2023-02-27T14:58:08.455Z,4.19
2023-02-27T15:00:50.685Z,4.20
2023-02-27T15:03:23.780Z,4.11
2023-02-27T15:05:58.101Z,4.10
2023-02-27T15:08:39.562Z,4.08
2023-02-27T15:11:31.284Z,4.02
2023-02-27T15:14:07.057Z,3.82
2023-02-27T15:17:03.830Z,3.73
2023-02-27T15:22:38.974Z,3.63
2023-02-27T15:25:45.948Z,3.61
2023-02-27T15:28:23.793Z,3.52
2023-02-27T15:30:53.667Z,3.53
2023-02-27T15:33:33.059Z,3.44
2023-02-27T15:36:01.921Z,3.48
2023-02-27T15:38:32.972Z,3.57
2023-02-27T15:41:03.009Z,3.62
2023-02-27T15:43:31.841Z,3.46
2023-02-27T15:46:00.214Z,3.50
2023-02-27T15:48:29.482Z,3.41
2023-02-27T15:51:42.422Z,3.37
2023-02-27T15:54:11.696Z,3.31
2023-02-27T15:56:41.032Z,3.31
2023-02-27T15:59:11.721Z,3.30
2023-02-27T16:01:39.536Z,3.31
2023-02-27T16:04:22.116Z,3.30
2023-02-27T16:06:59.748Z,3.28
2023-02-27T16:09:35.100Z,3.19
2023-02-27T16:12:21.015Z,3.16
2023-02-27T16:14:52.669Z,3.17
2023-02-27T16:17:33.283Z,3.14
2023-02-27T16:20:28.251Z,3.15
2023-02-27T16:23:06.282Z,3.14
2023-02-27T16:25:33.653Z,3.14
2023-02-27T16:28:01.355Z,3.09
2023-02-27T16:30:28.715Z,3.04
2023-02-27T16:33:01.961Z,3.04
2023-02-27T16:35:29.825Z,3.02
2023-02-27T16:38:02.089Z,2.97
2023-02-27T16:40:29.907Z,2.99
2023-02-27T16:42:57.637Z,3.00
2023-02-27T16:45:30.689Z,2.97
2023-02-27T16:48:00.474Z,2.97
2023-02-27T16:50:41.663Z,2.88
2023-02-27T16:53:09.063Z,2.87
2023-02-27T16:55:41.083Z,2.92
2023-02-27T16:58:15.613Z,2.96
2023-02-27T17:00:43.217Z,2.92
2023-02-27T17:03:10.917Z,2.97
2023-02-27T17:05:38.210Z,2.98
2023-02-27T17:08:05.674Z,3.00
2023-02-27T17:10:33.551Z,3.02
2023-02-27T17:13:01.080Z,3.00
2023-02-27T17:15:29.163Z,2.98
2023-02-27T17:17:56.597Z,3.02
2023-02-27T17:20:24.585Z,3.00
2023-02-27T17:22:56.200Z,2.95
2023-02-27T17:25:23.774Z,2.90
2023-02-27T17:27:51.904Z,2.87
2023-02-27T17:30:32.152Z,2.85
2023-02-27T17:33:01.111Z,2.77
2023-02-27T17:35:30.539Z,2.76
2023-02-27T17:38:02.396Z,2.76
2023-02-27T17:40:29.720Z,2.79
2023-02-27T17:42:57.105Z,2.84
2023-02-27T17:45:27.019Z,2.82
2023-02-27T17:47:54.690Z,2.85
2023-02-27T17:50:21.785Z,2.83
2023-02-27T17:52:49.264Z,2.86
2023-02-27T17:55:16.928Z,2.84
2023-02-27T17:57:44.187Z,2.80
2023-02-27T18:00:15.310Z,2.82
2023-02-27T18:02:47.999Z,2.85
2023-02-27T18:05:16.151Z,2.87
2023-02-27T18:07:43.738Z,2.87
2023-02-27T18:10:14.008Z,2.86
2023-02-27T18:12:42.252Z,2.82
2023-02-27T18:15:10.326Z,2.86
2023-02-27T18:17:37.720Z,2.82
2023-02-27T18:20:05.539Z,2.80
2023-02-27T18:22:33.099Z,2.85
2023-02-27T18:25:01.062Z,2.82
2023-02-27T18:27:28.548Z,2.82
2023-02-27T18:29:58.027Z,2.81
2023-02-27T18:32:25.493Z,2.79
2023-02-27T18:34:53.579Z,2.77
2023-02-27T18:37:21.114Z,2.75
2023-02-27T18:39:48.443Z,2.76
2023-02-27T18:42:15.716Z,2.75
2023-02-27T18:44:43.073Z,2.76
2023-02-27T18:47:12.094Z,2.75
2023-02-27T18:49:39.515Z,2.77
2023-02-27T18:52:06.986Z,2.79
2023-02-27T18:54:34.188Z,2.76
2023-02-27T18:57:01.579Z,2.76
2023-02-27T18:59:28.743Z,2.81
2023-02-27T19:01:57.295Z,2.76
2023-02-27T19:04:25.699Z,2.79
2023-02-27T19:06:53.686Z,2.79
2023-02-27T19:09:22.114Z,2.77
2023-02-27T19:11:49.610Z,2.78
2023-02-27T19:14:16.995Z,2.80
2023-02-27T19:17:04.600Z,2.83
2023-02-27T19:19:32.688Z,2.85
2023-02-27T19:22:00.841Z,2.80
2023-02-27T19:24:28.343Z,2.79
2023-02-27T19:26:55.574Z,2.77
2023-02-27T19:29:22.595Z,2.75
2023-02-27T19:31:50.181Z,2.75
2023-02-27T19:34:27.556Z,2.74
2023-02-27T19:37:03.125Z,2.79
2023-02-27T19:39:30.140Z,2.71
2023-02-27T19:45:05.832Z,2.77
2023-02-27T19:47:34.148Z,2.75
2023-02-27T19:50:01.169Z,2.73
2023-02-27T19:52:28.470Z,2.70
2023-02-27T19:55:35.691Z,2.73
2023-02-27T19:58:03.520Z,2.78
2023-02-27T20:00:31.388Z,2.76
2023-02-27T20:02:58.946Z,2.72
2023-02-27T20:05:26.200Z,2.70
2023-02-27T20:07:53.586Z,2.79
2023-02-27T20:10:21.289Z,2.76
2023-02-27T20:12:48.592Z,2.83
2023-02-27T20:15:35.839Z,2.80
2023-02-27T20:18:03.127Z,2.85
2023-02-27T20:20:31.949Z,2.89
2023-02-27T20:23:04.300Z,2.89
2023-02-27T20:25:31.311Z,2.90
2023-02-27T20:27:58.876Z,2.93
2023-02-27T20:30:26.700Z,2.93
2023-02-27T20:32:55.199Z,2.90
2023-02-27T20:35:23.257Z,2.85
2023-02-27T20:37:50.657Z,2.82
2023-02-27T20:40:17.821Z,2.80
2023-02-27T20:42:45.439Z,2.74
2023-02-27T20:45:12.698Z,2.71
2023-02-27T20:47:40.092Z,2.71
2023-02-27T20:50:07.973Z,2.67
2023-02-27T20:52:36.195Z,2.61
2023-02-27T20:55:03.544Z,2.54
2023-02-27T20:57:30.715Z,2.54
2023-02-27T20:59:57.932Z,2.53
2023-02-27T21:02:25.453Z,2.52
2023-02-27T21:04:54.228Z,2.55
2023-02-27T21:07:22.658Z,2.56
2023-02-27T21:09:51.027Z,2.61
2023-02-27T21:12:18.566Z,2.61
2023-02-27T21:14:46.610Z,2.60
2023-02-27T21:17:13.970Z,2.63
2023-02-27T21:19:41.135Z,2.46
2023-02-27T21:22:11.345Z,2.44
2023-02-27T21:24:38.759Z,2.49
2023-02-27T21:27:06.366Z,2.53
2023-02-27T21:29:33.897Z,2.55
2023-02-27T21:32:22.806Z,2.50
2023-02-27T21:34:49.889Z,2.44
2023-02-27T21:37:20.476Z,2.36
2023-02-27T21:39:52.402Z,2.35
2023-02-27T21:42:20.138Z,2.36
2023-02-27T21:44:47.275Z,2.37
2023-02-27T21:47:15.021Z,2.37
2023-02-27T21:49:56.741Z,2.33
2023-02-27T21:52:30.192Z,2.32
2023-02-27T21:54:57.678Z,2.34
2023-02-27T21:57:25.138Z,2.32
2023-02-27T21:59:52.526Z,2.33
2023-02-27T22:02:19.810Z,2.36
2023-02-27T22:04:47.600Z,2.36
2023-02-27T22:07:14.884Z,2.31
2023-02-27T22:09:42.077Z,2.35
2023-02-27T22:12:10.538Z,2.27
2023-02-27T22:14:37.757Z,2.33
2023-02-27T22:17:05.601Z,2.30
2023-02-27T22:19:32.594Z,2.33
2023-02-27T22:21:59.916Z,2.35
2023-02-27T22:24:27.832Z,2.31
2023-02-27T22:26:55.071Z,2.35
2023-02-27T22:29:22.073Z,2.35
2023-02-27T22:31:49.477Z,2.30
2023-02-27T22:34:18.795Z,2.23
2023-02-27T22:36:52.726Z,2.22
2023-02-27T22:39:20.899Z,2.20
2023-02-27T22:41:48.245Z,2.23
2023-02-27T22:44:16.832Z,2.24
2023-02-27T22:46:48.761Z,2.26
2023-02-27T22:49:22.330Z,2.27
2023-02-27T22:51:52.107Z,2.28
2023-02-27T22:54:21.976Z,2.31
2023-02-27T22:56:55.179Z,2.28
2023-02-27T22:59:24.158Z,2.27
2023-02-27T23:01:51.927Z,2.22
2023-02-27T23:04:20.838Z,2.18
2023-02-27T23:06:50.422Z,2.26
2023-02-27T23:09:27.412Z,2.29
2023-02-27T23:11:55.253Z,2.19
2023-02-27T23:14:22.858Z,2.20
2023-02-27T23:16:50.920Z,2.23
2023-02-27T23:19:21.608Z,2.21
2023-02-27T23:21:49.212Z,2.20
2023-02-27T23:24:19.276Z,2.19
2023-02-27T23:26:50.831Z,2.21
2023-02-27T23:29:18.687Z,2.28
2023-02-27T23:31:46.115Z,2.31
2023-02-27T23:34:13.542Z,2.30
2023-02-27T23:36:40.917Z,2.26
2023-02-27T23:39:08.567Z,2.28
2023-02-27T23:41:36.164Z,2.22
2023-02-27T23:44:04.168Z,2.16
2023-02-27T23:46:32.008Z,2.16
2023-02-27T23:49:00.914Z,2.22
2023-02-27T23:51:30.445Z,2.18
2023-02-27T23:53:59.116Z,2.22
2023-02-27T23:56:30.113Z,2.21
2023-02-27T23:59:05.175Z,2.16
